Portada
METAR-TAF:

METAR-TAF

Aeropuertos :

Iwo Jima, Japón

latitud: 24-47N, longitud: 141-19E, altitud: 113 m

Observación

El informe se hizo hace 1 hora y 19 minutos, a las 06:00 UTC
Viento 14 kt del sureste
Temperatura 27°C
Humedad 70%
Presión 1014 hPa
Visibilidad 10 km o más
Escasas nubes a una altura de 1500 ft
Nubes dispersas

METAR: RJAW 200600Z 13014KT 9999 FEW015 SCT/// 27/21 Q1014 RMK 1CU015 A2995 WIND BY EQPT/25

Hora: 16:19 (07:19 UTC)


TAF: falta

Observaciones y pronósticos meteorológicos de más de 4000 aeropuertos (mensajes METAR y TAF).

Los puntos amarillos y rojos representan las estaciones disponibles.

Ponga el ratón en el punto deseado para ver el nombre de la estación.

Haga clic para ver las observaciones y los pronósticos meteorológicos.

Para cambiar el mapa : haga clic en los botones verdes con una cruz de color negro para hacer un zoom, en el botón verde con un guión para alejar o en las flechas verdes para mapas adyacentes.


METAR-TAF: